Time;durP1;ratioP1;P1;durP2;ratioP2;P2;SDS_P1;SDS_P2;PMS_P1;PMS_P2;Temp;Humidity;BMP_temperature;BMP_pressure;BME280_temperature;BME280_humidity;BME280_pressure;Samples;Min_cycle;Max_cycle;Signal;HPM_P1;HPM_P2
2023/04/15 00:02:27;;;;;;;0.50;0.50;;;;;;;6.29;96.46;98187.28;4485868;32;33133;-85
2023/04/15 00:04:55;;;;;;;0.70;0.70;;;;;;;6.53;95.85;98188.69;4486068;32;34291;-85
2023/04/15 00:07:23;;;;;;;0.95;0.95;;;;;;;6.75;93.14;98199.63;4485680;32;35089;-85
2023/04/15 00:09:54;;;;;;;0.60;0.60;;;;;;;6.57;95.30;98191.22;4485927;32;34985;-85
2023/04/15 00:12:23;;;;;;;0.95;0.95;;;;;;;6.43;95.03;98193.13;4485557;32;33875;-85
2023/04/15 00:14:51;;;;;;;0.62;0.62;;;;;;;6.37;96.36;98193.19;4471577;32;33537;-85
2023/04/15 00:17:19;;;;;;;0.50;0.50;;;;;;;6.44;95.89;98194.84;4485610;32;35123;-85
2023/04/15 00:19:48;;;;;;;0.93;0.93;;;;;;;6.42;96.67;98199.16;4485576;32;34875;-85
2023/04/15 00:22:17;;;;;;;1.10;1.00;;;;;;;6.52;96.01;98193.00;4485743;32;33550;-85
2023/04/15 00:24:44;;;;;;;0.88;0.88;;;;;;;6.73;93.57;98201.38;4471319;32;33928;-85
2023/04/15 00:27:13;;;;;;;2.28;1.12;;;;;;;6.67;93.85;98196.28;4481458;32;35029;-84
2023/04/15 00:29:41;;;;;;;0.50;0.50;;;;;;;6.92;92.15;98196.78;4469769;32;34207;-85
2023/04/15 00:32:09;;;;;;;0.77;0.77;;;;;;;6.64;93.64;98192.84;4470021;32;33516;-84
2023/04/15 00:34:40;;;;;;;1.23;1.12;;;;;;;6.42;96.53;98196.59;4456221;32;34760;-84
2023/04/15 00:37:09;;;;;;;0.73;0.73;;;;;;;6.34;96.47;98193.25;4469752;32;34618;-84
2023/04/15 00:39:38;;;;;;;0.60;0.60;;;;;;;6.16;97.83;98197.78;4455960;32;34480;-85
2023/04/15 00:42:06;;;;;;;0.70;0.70;;;;;;;6.40;96.25;98188.00;4469741;32;34148;-85
2023/04/15 00:44:34;;;;;;;0.88;0.88;;;;;;;6.67;95.58;98183.34;4456026;32;34637;-84
2023/04/15 00:47:03;;;;;;;0.60;0.60;;;;;;;6.40;96.72;98186.25;4455663;32;35764;-84
2023/04/15 00:49:32;;;;;;;0.50;0.50;;;;;;;6.31;97.52;98185.53;4455675;32;34063;-84
2023/04/15 00:52:01;;;;;;;0.93;0.93;;;;;;;6.61;95.86;98192.03;4469612;32;33434;-84
2023/04/15 00:54:30;;;;;;;0.70;0.70;;;;;;;6.56;96.73;98188.66;4455748;32;33945;-85
2023/04/15 00:56:58;;;;;;;0.60;0.60;;;;;;;6.50;95.61;98187.00;4469586;32;36027;-85
2023/04/15 00:59:26;;;;;;;0.90;0.90;;;;;;;6.52;95.87;98182.66;4455536;32;34544;-84
2023/04/15 01:01:55;;;;;;;0.95;0.95;;;;;;;6.74;95.31;98187.53;4455555;32;33335;-84
2023/04/15 01:04:24;;;;;;;2.20;2.08;;;;;;;6.65;95.99;98188.53;4469318;32;33947;-84
2023/04/15 01:06:52;;;;;;;1.45;1.25;;;;;;;6.78;95.17;98184.06;4469342;32;34671;-84
2023/04/15 01:09:21;;;;;;;0.50;0.50;;;;;;;6.82;94.79;98188.31;4469340;32;35214;-85
2023/04/15 01:11:50;;;;;;;17.58;2.45;;;;;;;6.96;94.62;98175.16;4469398;32;33706;-85
2023/04/15 01:14:18;;;;;;;0.52;0.52;;;;;;;6.91;94.68;98170.06;4469285;32;33892;-84
2023/04/15 01:16:47;;;;;;;0.52;0.52;;;;;;;6.74;94.80;98177.19;4455355;32;34980;-85
2023/04/15 01:19:16;;;;;;;1.58;1.48;;;;;;;6.80;95.26;98182.31;4469012;32;34585;-84
2023/04/15 01:21:44;;;;;;;0.60;0.60;;;;;;;6.83;94.95;98179.69;4468846;32;33113;-84
2023/04/15 01:24:15;;;;;;;0.85;0.85;;;;;;;6.76;95.63;98181.50;4470654;32;33899;-84
2023/04/15 01:26:43;;;;;;;0.88;0.88;;;;;;;6.63;97.26;98187.69;4457333;32;34989;-84
2023/04/15 01:29:12;;;;;;;0.50;0.50;;;;;;;6.88;95.45;98188.19;4457273;32;34322;-84
2023/04/15 01:31:40;;;;;;;0.85;0.85;;;;;;;6.61;97.03;98181.69;4457452;32;33431;-84
2023/04/15 01:34:26;;;;;;;0.50;0.50;;;;;;;6.68;96.23;98188.50;4471353;32;34596;-84
2023/04/15 01:37:13;;;;;;;3.15;1.80;;;;;;;6.99;94.62;98183.75;4471333;32;35790;-84
2023/04/15 01:39:42;;;;;;;1.10;1.10;;;;;;;7.01;93.50;98187.16;4471257;32;34755;-84
2023/04/15 01:42:10;;;;;;;1.15;1.15;;;;;;;7.51;91.23;98191.56;4457336;32;33895;-84
2023/04/15 01:44:40;;;;;;;0.73;0.73;;;;;;;7.34;92.78;98190.09;4471329;32;34398;-85
2023/04/15 01:47:13;;;;;;;0.60;0.60;;;;;;;6.87;95.44;98189.09;4457708;32;35922;-85
2023/04/15 01:49:42;;;;;;;1.45;1.37;;;;;;;6.84;96.52;98189.97;4457334;32;34958;-85
2023/04/15 01:52:12;;;;;;;0.80;0.80;;;;;;;6.92;95.54;98196.78;4471424;32;34010;-85
2023/04/15 01:54:41;;;;;;;0.52;0.52;;;;;;;7.35;94.16;98190.97;4457185;32;34446;-85
2023/04/15 01:57:12;;;;;;;1.08;1.02;;;;;;;7.00;96.25;98194.94;4471346;32;36170;-85
2023/04/15 01:59:42;;;;;;;0.60;0.60;;;;;;;6.95;97.94;98197.63;4471368;32;35015;-85
2023/04/15 02:02:11;;;;;;;0.50;0.50;;;;;;;7.47;93.96;98197.69;4471067;32;34142;-85
2023/04/15 02:04:41;;;;;;;0.80;0.80;;;;;;;7.16;95.60;98187.78;4471108;32;35400;-85
2023/04/15 02:07:11;;;;;;;0.70;0.70;;;;;;;7.05;96.26;98203.50;4470970;32;36562;-85
2023/04/15 02:09:40;;;;;;;0.73;0.73;;;;;;;7.18;96.31;98198.97;4470905;32;34946;-85
2023/04/15 02:12:09;;;;;;;0.50;0.50;;;;;;;7.24;95.29;98198.06;4457547;32;33944;-85
2023/04/15 02:14:39;;;;;;;1.40;1.25;;;;;;;7.29;94.87;98197.09;4470981;32;35293;-85
2023/04/15 02:17:08;;;;;;;0.93;0.93;;;;;;;7.26;95.87;98197.13;4457101;32;35530;-85
2023/04/15 02:19:39;;;;;;;0.60;0.60;;;;;;;7.62;93.16;98193.97;4470999;32;35728;-85
2023/04/15 02:22:10;;;;;;;0.50;0.50;;;;;;;7.39;94.05;98193.47;4471133;32;33961;-86
2023/04/15 02:24:39;;;;;;;0.60;0.60;;;;;;;7.62;91.91;98189.63;4470827;32;33960;-85
2023/04/15 02:27:15;;;;;;;0.55;0.55;;;;;;;7.22;94.77;98191.16;4457352;32;35198;-85
2023/04/15 02:29:44;;;;;;;1.60;1.50;;;;;;;7.53;94.67;98194.97;4470920;32;35123;-85
2023/04/15 02:32:14;;;;;;;1.05;1.05;;;;;;;7.87;92.79;98196.97;4470974;32;35558;-85
2023/04/15 02:34:43;;;;;;;0.47;0.47;;;;;;;7.70;92.44;98198.12;4469798;32;34549;-86
2023/04/15 02:37:13;;;;;;;2.05;1.87;;;;;;;7.35;93.70;98202.16;4470875;32;35518;-85
2023/04/15 02:39:42;;;;;;;0.47;0.47;;;;;;;7.79;91.77;98203.13;4457175;32;34976;-85
2023/04/15 02:42:12;;;;;;;0.50;0.50;;;;;;;7.57;92.07;98201.78;4470833;32;33957;-85
2023/04/15 02:44:42;;;;;;;1.37;0.70;;;;;;;7.56;94.25;98203.53;4470847;32;34439;-85
2023/04/15 02:47:13;;;;;;;0.93;0.93;;;;;;;7.65;91.78;98189.56;4457085;32;34358;-87
2023/04/15 02:49:43;;;;;;;3.22;1.60;;;;;;;7.38;94.45;98191.75;4456773;32;35667;-85
2023/04/15 02:52:12;;;;;;;0.55;0.55;;;;;;;7.64;91.22;98187.87;4470816;32;34237;-85
2023/04/15 02:54:42;;;;;;;0.80;0.80;;;;;;;7.74;91.71;98189.41;4470765;32;34417;-85
2023/04/15 02:57:11;;;;;;;0.50;0.50;;;;;;;7.60;92.47;98186.22;4457027;32;35489;-85
2023/04/15 02:59:41;;;;;;;0.95;0.95;;;;;;;7.43;93.16;98183.03;4456822;32;35641;-86
2023/04/15 03:02:10;;;;;;;1.40;1.20;;;;;;;7.56;92.92;98181.97;4470928;32;34764;-85
2023/04/15 03:04:40;;;;;;;0.40;0.40;;;;;;;7.73;91.32;98185.13;4456825;32;34411;-85
2023/04/15 03:07:09;;;;;;;1.98;1.37;;;;;;;7.29;94.16;98186.75;4470852;32;35626;-86
2023/04/15 03:09:40;;;;;;;0.90;0.90;;;;;;;7.44;94.26;98184.78;4470784;32;35762;-85
2023/04/15 03:12:09;;;;;;;0.50;0.50;;;;;;;7.36;94.79;98187.50;4456986;32;34394;-86
2023/04/15 03:14:39;;;;;;;1.12;1.12;;;;;;;7.22;97.20;98182.53;4456701;32;33933;-85
2023/04/15 03:17:08;;;;;;;0.60;0.60;;;;;;;7.55;94.13;98175.06;4470602;32;36377;-86
2023/04/15 03:19:38;;;;;;;0.70;0.70;;;;;;;7.66;93.79;98182.66;4470767;32;35040;-86
2023/04/15 03:22:09;;;;;;;0.40;0.40;;;;;;;7.41;94.87;98185.66;4470978;32;33444;-86
2023/04/15 03:24:39;;;;;;;0.90;0.90;;;;;;;7.33;96.17;98190.97;4470314;32;34476;-86
2023/04/15 03:27:08;;;;;;;0.80;0.80;;;;;;;7.54;94.34;98186.34;4470559;32;36470;-86
2023/04/15 03:29:38;;;;;;;0.68;0.57;;;;;;;7.24;96.54;98183.38;4470779;32;35132;-86
2023/04/15 03:32:08;;;;;;;0.80;0.80;;;;;;;7.62;94.65;98184.44;4470713;32;34777;-86
2023/04/15 03:34:37;;;;;;;0.60;0.60;;;;;;;7.32;94.26;98185.81;4470420;32;34530;-86
2023/04/15 03:37:07;;;;;;;0.52;0.52;;;;;;;7.81;92.99;98184.12;4470466;32;35597;-86
2023/04/15 03:39:37;;;;;;;0.70;0.70;;;;;;;7.49;93.47;98183.81;4456710;32;34170;-86
2023/04/15 03:42:06;;;;;;;0.60;0.60;;;;;;;7.50;93.93;98185.53;4470470;32;33773;-86
2023/04/15 03:44:36;;;;;;;0.80;0.80;;;;;;;7.71;92.78;98178.25;4470742;32;34449;-86
2023/04/15 03:47:05;;;;;;;0.85;0.85;;;;;;;7.55;93.24;98182.84;4469904;32;35637;-86
2023/04/15 03:49:35;;;;;;;1.10;0.98;;;;;;;7.20;96.10;98186.87;4470307;32;35102;-86
2023/04/15 03:52:05;;;;;;;0.70;0.70;;;;;;;7.40;96.60;98178.78;4470392;32;33447;-86
2023/04/15 03:54:34;;;;;;;1.50;0.82;;;;;;;7.45;94.86;98181.28;4470367;32;34495;-86
2023/04/15 03:57:04;;;;;;;0.40;0.40;;;;;;;7.36;94.88;98183.16;4470247;32;35501;-86
2023/04/15 03:59:33;;;;;;;0.50;0.50;;;;;;;7.27;96.57;98183.31;4470283;32;35062;-86
2023/04/15 04:02:02;;;;;;;0.70;0.70;;;;;;;7.38;96.01;98176.22;4470354;32;34027;-86
2023/04/15 04:04:32;;;;;;;0.57;0.57;;;;;;;7.18;98.02;98179.16;4470149;32;34535;-86
2023/04/15 04:07:01;;;;;;;1.45;1.17;;;;;;;7.32;97.54;98181.47;4470302;32;35613;-86
2023/04/15 04:09:31;;;;;;;0.80;0.80;;;;;;;7.57;96.42;98181.06;4470196;32;35058;-86
2023/04/15 04:12:01;;;;;;;1.50;0.77;;;;;;;7.40;96.84;98179.63;4470164;32;34782;-86
2023/04/15 04:14:30;;;;;;;1.25;1.08;;;;;;;7.18;98.54;98188.63;4470194;32;34473;-86
2023/04/15 04:17:00;;;;;;;0.70;0.70;;;;;;;7.32;97.88;98193.59;4470157;32;35554;-86
2023/04/15 04:19:29;;;;;;;0.50;0.50;;;;;;;7.30;97.71;98190.16;4456305;32;34967;-86
2023/04/15 04:21:59;;;;;;;0.80;0.80;;;;;;;7.45;97.85;98181.28;4470020;32;33984;-86
2023/04/15 04:24:28;;;;;;;0.85;0.85;;;;;;;7.69;96.57;98183.44;4469918;32;35364;-86
2023/04/15 04:26:58;;;;;;;0.90;0.90;;;;;;;7.74;95.38;98185.97;4470043;32;36421;-86
2023/04/15 04:29:27;;;;;;;1.33;1.23;;;;;;;7.84;94.53;98189.25;4469939;32;35026;-86
2023/04/15 04:31:57;;;;;;;0.60;0.60;;;;;;;7.97;94.67;98191.56;4456149;32;35087;-87
2023/04/15 04:34:26;;;;;;;0.55;0.55;;;;;;;7.95;94.72;98187.31;4470059;32;34535;-86
2023/04/15 04:36:55;;;;;;;0.60;0.60;;;;;;;7.97;94.76;98185.53;4469978;32;35477;-86
2023/04/15 04:39:25;;;;;;;0.50;0.50;;;;;;;7.78;95.26;98188.50;4455971;32;35025;-87
2023/04/15 04:41:54;;;;;;;0.60;0.60;;;;;;;7.74;96.40;98193.75;4469828;32;34789;-86
2023/04/15 04:44:24;;;;;;;0.80;0.80;;;;;;;8.07;94.55;98197.44;4443334;32;34333;-86
2023/04/15 04:46:53;;;;;;;0.95;0.85;;;;;;;8.01;95.74;98186.34;4469750;32;36344;-86
2023/04/15 04:49:22;;;;;;;0.73;0.70;;;;;;;7.86;95.05;98188.34;4469751;32;35032;-86
2023/04/15 04:51:52;;;;;;;0.65;0.65;;;;;;;8.00;94.40;98190.69;4469667;32;34854;-86
2023/04/15 04:54:22;;;;;;;0.40;0.40;;;;;;;8.00;95.65;98190.69;4469714;32;34499;-86
2023/04/15 04:56:51;;;;;;;1.05;1.02;;;;;;;8.27;94.90;98191.03;4469694;32;35531;-87
2023/04/15 04:59:21;;;;;;;0.73;0.73;;;;;;;8.34;94.43;98193.44;4471136;32;35045;-86
2023/04/15 05:01:50;;;;;;;1.65;1.12;;;;;;;8.15;93.43;98192.97;4471613;32;34034;-86
2023/04/15 05:04:20;;;;;;;0.50;0.50;;;;;;;8.09;94.39;98189.66;4457596;32;35309;-86
2023/04/15 05:06:50;;;;;;;0.65;0.65;;;;;;;8.54;92.21;98192.22;4457670;32;35519;-86
2023/04/15 05:09:19;;;;;;;0.77;0.77;;;;;;;8.24;94.37;98198.84;4471432;32;35056;-86
2023/04/15 05:11:49;;;;;;;2.42;1.55;;;;;;;8.22;94.38;98204.06;4471522;32;34910;-86
2023/04/15 05:14:18;;;;;;;0.50;0.50;;;;;;;8.27;94.11;98191.88;4471437;32;34499;-86
2023/04/15 05:16:50;;;;;;;0.95;0.95;;;;;;;8.30;94.01;98193.56;4471505;32;36376;-85
2023/04/15 05:19:19;;;;;;;0.70;0.70;;;;;;;8.51;91.74;98200.09;4471323;32;35704;-86
2023/04/15 05:21:48;;;;;;;0.47;0.47;;;;;;;8.42;94.07;98197.63;4457486;32;35099;-86
2023/04/15 05:24:18;;;;;;;1.55;1.45;;;;;;;8.41;94.02;98198.53;4457376;32;34408;-87
2023/04/15 05:26:47;;;;;;;0.70;0.70;;;;;;;8.34;94.58;98197.78;4457400;32;35516;-86
2023/04/15 05:29:16;;;;;;;0.50;0.50;;;;;;;8.56;92.24;98202.56;4471488;32;35772;-86
2023/04/15 05:31:46;;;;;;;0.82;0.82;;;;;;;8.50;92.69;98196.63;4471346;32;33964;-85
2023/04/15 05:34:16;;;;;;;0.70;0.70;;;;;;;8.50;92.56;98200.97;4471234;32;34399;-86
2023/04/15 05:36:45;;;;;;;1.50;1.15;;;;;;;8.31;92.15;98211.69;4471202;32;36356;-86
2023/04/15 05:39:15;;;;;;;13.48;1.77;;;;;;;8.21;94.95;98206.72;4471295;32;35075;-86
2023/04/15 05:41:44;;;;;;;0.80;0.80;;;;;;;8.20;93.86;98215.38;4471241;32;34802;-86
2023/04/15 05:44:13;;;;;;;1.15;1.10;;;;;;;8.40;95.22;98213.25;4457223;32;35341;-87
2023/04/15 05:46:43;;;;;;;0.98;0.93;;;;;;;8.83;92.30;98217.56;4471224;32;35535;-86
2023/04/15 05:49:12;;;;;;;2.65;1.67;;;;;;;8.94;90.83;98219.06;4471196;32;34999;-86
2023/04/15 05:51:41;;;;;;;0.70;0.70;;;;;;;9.03;93.08;98222.28;4471268;32;33996;-83
2023/04/15 05:54:11;;;;;;;0.50;0.50;;;;;;;9.43;91.33;98225.72;4471121;32;35269;-87
2023/04/15 05:56:40;;;;;;;0.88;0.85;;;;;;;9.60;88.20;98226.16;4471100;32;35564;-87
2023/04/15 05:59:09;;;;;;;0.40;0.40;;;;;;;9.30;88.04;98226.03;4471147;32;34986;-84
2023/04/15 06:01:39;;;;;;;0.95;0.95;;;;;;;9.70;87.49;98233.72;4471241;32;33741;-87
2023/04/15 06:04:10;;;;;;;6.45;1.75;;;;;;;9.85;88.76;98230.75;4471178;32;35348;-86
2023/04/15 06:06:39;;;;;;;0.60;0.60;;;;;;;10.05;85.90;98230.22;4457215;32;36463;-85
2023/04/15 06:09:10;;;;;;;0.93;0.90;;;;;;;10.23;82.75;98241.88;4456919;32;35716;-86
2023/04/15 06:11:40;;;;;;;1.10;1.10;;;;;;;10.77;82.85;98235.22;4457304;32;35052;-86
2023/04/15 06:14:10;;;;;;;0.52;0.52;;;;;;;11.16;81.51;98240.97;4471073;32;34005;-86
2023/04/15 06:16:39;;;;;;;0.50;0.50;;;;;;;11.50;78.76;98242.50;4470991;32;35548;-86
2023/04/15 06:19:09;;;;;;;0.47;0.47;;;;;;;11.37;77.22;98241.19;4470994;32;35795;-86
2023/04/15 06:21:39;;;;;;;7.57;1.90;;;;;;;11.28;80.09;98241.50;4457151;32;33980;-88
2023/04/15 06:24:09;;;;;;;0.55;0.55;;;;;;;11.11;78.85;98240.25;4470730;32;34435;-87
2023/04/15 06:26:38;;;;;;;1.65;1.55;;;;;;;11.64;78.39;98236.00;4470960;32;35590;-87
2023/04/15 06:29:07;;;;;;;0.45;0.45;;;;;;;11.49;76.76;98246.03;4470291;31;35046;-83
2023/04/15 06:31:37;;;;;;;1.10;1.05;;;;;;;11.68;76.39;98240.19;4488339;31;33927;-85
2023/04/15 06:34:06;;;;;;;3.80;2.55;;;;;;;11.61;76.42;98249.13;4502298;31;34556;-87
2023/04/15 06:36:35;;;;;;;0.77;0.77;;;;;;;11.70;76.48;98246.22;4475387;31;35465;-86
2023/04/15 06:39:05;;;;;;;1.10;1.05;;;;;;;11.89;77.58;98249.91;4502300;31;35787;-86
2023/04/15 06:41:35;;;;;;;0.60;0.60;;;;;;;11.70;77.53;98244.47;4488287;31;34709;-85
2023/04/15 06:44:04;;;;;;;0.75;0.75;;;;;;;11.76;76.48;98249.47;4488160;31;35407;-84
2023/04/15 06:46:34;;;;;;;0.60;0.60;;;;;;;11.28;78.73;98244.94;4488257;31;35476;-81
2023/04/15 06:49:04;;;;;;;1.30;1.20;;;;;;;11.17;77.15;98247.00;4502271;31;35902;-88
2023/04/15 06:51:34;;;;;;;0.40;0.40;;;;;;;11.84;76.21;98246.63;4502423;31;34723;-89
2023/04/15 06:54:05;;;;;;;1.80;1.70;;;;;;;11.82;76.33;98243.19;4488172;31;34425;-86
2023/04/15 06:56:34;;;;;;;0.80;0.80;;;;;;;11.40;75.82;98246.31;4502293;31;36294;-84
2023/04/15 06:59:04;;;;;;;0.70;0.70;;;;;;;12.03;73.26;98246.03;4502201;31;35780;-82
2023/04/15 07:01:33;;;;;;;0.68;0.68;;;;;;;12.20;73.85;98243.69;4502162;31;35130;-84
2023/04/15 07:04:03;;;;;;;0.60;0.60;;;;;;;12.13;72.69;98244.81;4502088;31;34552;-81
2023/04/15 07:06:34;;;;;;;0.80;0.80;;;;;;;12.19;74.96;98252.41;4502193;31;35618;-84
2023/04/15 07:09:04;;;;;;;4.32;3.17;;;;;;;13.10;67.16;98256.94;4502189;31;35006;-87
2023/04/15 07:11:34;;;;;;;0.57;0.57;;;;;;;12.91;69.62;98254.19;4502118;31;33918;-80
2023/04/15 07:14:03;;;;;;;1.02;1.02;;;;;;;12.73;66.08;98257.50;4502091;31;34518;-86
2023/04/15 07:16:32;;;;;;;0.40;0.40;;;;;;;12.59;63.78;98256.22;4502092;31;36298;-87
2023/04/15 07:19:02;;;;;;;0.47;0.47;;;;;;;12.39;66.90;98253.47;4502110;31;35830;-88
2023/04/15 07:21:32;;;;;;;0.93;0.93;;;;;;;12.28;64.50;98257.34;4501340;31;34044;-88
2023/04/15 07:24:01;;;;;;;1.10;1.05;;;;;;;11.11;68.82;98260.25;4501764;31;34441;-89
2023/04/15 07:26:31;;;;;;;0.57;0.57;;;;;;;11.11;71.85;98265.44;4502003;31;35569;-84
2023/04/15 07:29:00;;;;;;;0.80;0.80;;;;;;;11.09;71.42;98273.31;4502059;31;35012;-88
2023/04/15 07:31:30;;;;;;;0.62;0.62;;;;;;;11.33;70.65;98270.84;4487923;31;33979;-83
2023/04/15 07:34:00;;;;;;;1.42;1.33;;;;;;;11.12;72.30;98281.03;4501951;31;34396;-88
2023/04/15 07:36:30;;;;;;;1.60;1.50;;;;;;;11.34;71.27;98276.00;4487833;31;36443;-87
2023/04/15 07:39:02;;;;;;;1.30;1.08;;;;;;;11.17;72.03;98275.66;4501915;31;37067;-88
2023/04/15 07:41:32;;;;;;;2.05;1.95;;;;;;;10.91;73.35;98268.66;4488115;31;33944;-84
2023/04/15 07:44:02;;;;;;;0.82;0.82;;;;;;;10.90;76.29;98277.38;4501835;31;35434;-89
2023/04/15 07:46:32;;;;;;;1.02;1.02;;;;;;;11.44;74.30;98273.16;4501897;31;35516;-82
2023/04/15 07:49:02;;;;;;;1.40;1.30;;;;;;;11.48;72.34;98278.19;4501782;31;35704;-88
2023/04/15 07:51:32;;;;;;;0.40;0.40;;;;;;;11.17;72.54;98275.66;4501878;31;35089;-88
2023/04/15 07:54:02;;;;;;;1.10;1.08;;;;;;;10.76;74.99;98276.00;4501849;31;35385;-88
2023/04/15 07:56:31;;;;;;;0.50;0.50;;;;;;;10.87;73.77;98270.50;4502287;31;35579;-85
2023/04/15 07:59:05;;;;;;;3.12;1.48;;;;;;;11.11;72.61;98281.09;4501871;31;35817;-85
2023/04/15 08:01:35;;;;;;;0.40;0.40;;;;;;;10.69;74.25;98278.81;4487840;31;34018;-87
2023/04/15 08:04:05;;;;;;;0.40;0.40;;;;;;;10.31;78.24;98284.19;4501775;31;35301;-85
2023/04/15 08:06:35;;;;;;;0.65;0.65;;;;;;;10.82;75.75;98290.62;4501669;31;36428;-88
2023/04/15 08:09:06;;;;;;;1.73;0.95;;;;;;;10.75;77.36;98295.13;4474727;32;34508;-82
2023/04/15 08:11:35;;;;;;;0.50;0.50;;;;;;;10.68;75.90;98296.22;4460431;32;34697;-82
2023/04/15 08:14:05;;;;;;;0.65;0.65;;;;;;;10.35;77.25;98291.00;4470978;32;34568;-81
2023/04/15 08:16:35;;;;;;;0.88;0.88;;;;;;;10.97;75.95;98290.16;4485680;32;35566;-86
2023/04/15 08:19:06;;;;;;;0.40;0.40;;;;;;;11.23;73.52;98290.28;4485743;32;35796;-81
2023/04/15 08:21:35;;;;;;;0.50;0.50;;;;;;;11.18;71.31;98288.66;4485426;32;34738;-83
2023/04/15 08:24:05;;;;;;;0.70;0.70;;;;;;;11.81;71.27;98291.06;4485385;32;35419;-80
2023/04/15 08:26:35;;;;;;;0.60;0.60;;;;;;;12.14;68.04;98296.06;4482295;32;35628;-85
2023/04/15 08:29:04;;;;;;;0.60;0.60;;;;;;;12.18;67.77;98295.09;4469890;32;35038;-87
2023/04/15 08:31:34;;;;;;;0.40;0.40;;;;;;;12.54;63.82;98299.09;4469728;32;34944;-83
2023/04/15 08:34:03;;;;;;;2.50;1.40;;;;;;;12.68;63.07;98300.28;4469746;32;34404;-87
2023/04/15 08:36:33;;;;;;;0.30;0.30;;;;;;;13.01;61.54;98299.13;4470020;32;36311;-88
2023/04/15 08:39:03;;;;;;;0.30;0.30;;;;;;;12.90;66.28;98297.75;4455751;32;34979;-87
2023/04/15 08:41:47;;;;;;;0.30;0.30;;;;;;;13.00;64.07;98303.47;4469696;32;33723;-82
2023/04/15 08:44:17;;;;;;;0.80;0.80;;;;;;;12.65;63.22;98308.25;4455798;32;34483;-89
2023/04/15 08:46:47;;;;;;;0.50;0.50;;;;;;;11.97;65.57;98301.03;4469733;32;37997;-86
2023/04/15 08:49:16;;;;;;;0.47;0.47;;;;;;;12.21;67.42;98300.22;4469648;32;34928;-86
2023/04/15 08:51:46;;;;;;;0.40;0.40;;;;;;;12.21;64.10;98304.56;4455648;32;34756;-86
2023/04/15 08:54:15;;;;;;;0.35;0.35;;;;;;;12.06;66.12;98303.34;4455490;32;34453;-86
2023/04/15 08:56:45;;;;;;;0.32;0.32;;;;;;;11.98;66.49;98300.13;4469411;32;35571;-84
2023/04/15 08:59:18;;;;;;;0.50;0.50;;;;;;;11.77;69.50;98311.19;4469358;32;35939;-84
2023/04/15 09:01:49;;;;;;;0.45;0.45;;;;;;;11.37;73.12;98304.59;4456035;32;34028;-88
2023/04/15 09:04:19;;;;;;;0.40;0.40;;;;;;;11.54;73.83;98311.03;4466264;32;34176;-84
2023/04/15 09:06:48;;;;;;;0.40;0.40;;;;;;;11.39;74.89;98312.38;4485248;32;35708;-82
2023/04/15 09:09:18;;;;;;;0.37;0.37;;;;;;;10.78;78.45;98317.63;4484946;32;34991;-85
2023/04/15 09:11:48;;;;;;;0.93;0.93;;;;;;;10.52;80.69;98311.41;4484887;32;34777;-83
2023/04/15 09:14:18;;;;;;;0.45;0.45;;;;;;;10.44;80.09;98316.78;4470941;32;33587;-85
2023/04/15 09:16:59;;;;;;;0.68;0.68;;;;;;;10.69;81.02;98313.50;4484749;32;35554;-87
2023/04/15 09:19:34;;;;;;;1.02;0.80;;;;;;;10.94;81.32;98305.00;4484914;32;34918;-83
2023/04/15 09:22:05;;;;;;;0.93;0.60;;;;;;;11.53;76.64;98309.34;4484913;32;33981;-82
2023/04/15 09:24:38;;;;;;;0.50;0.50;;;;;;;11.16;77.26;98315.69;4484540;32;34441;-81
2023/04/15 09:27:07;;;;;;;0.40;0.40;;;;;;;11.91;76.08;98313.38;4484794;32;35906;-84
2023/04/15 09:29:37;;;;;;;0.40;0.40;;;;;;;12.09;72.99;98309.31;4484725;32;35662;-81
2023/04/15 09:32:13;;;;;;;0.40;0.40;;;;;;;11.77;72.73;98326.81;4470669;32;34210;-82
2023/04/15 09:34:43;;;;;;;0.40;0.40;;;;;;;11.68;69.83;98318.44;4470619;32;34499;-89
2023/04/15 09:37:14;;;;;;;0.93;0.93;;;;;;;12.47;69.96;98312.34;4484293;32;35583;-82
2023/04/15 09:40:00;;;;;;;0.35;0.35;;;;;;;12.92;69.83;98318.59;4452754;32;35662;-80
2023/04/15 09:42:29;;;;;;;0.30;0.30;;;;;;;12.11;68.99;98337.97;4473576;32;34051;-77
2023/04/15 09:45:11;;;;;;;0.30;0.30;;;;;;;11.76;73.12;98329.47;4460514;32;35227;-85
2023/04/15 09:47:41;;;;;;;0.30;0.30;;;;;;;11.16;74.19;98337.38;4475294;32;35546;-79
2023/04/15 09:50:10;;;;;;;0.30;0.30;;;;;;;11.37;74.64;98340.25;4468283;32;34741;-84
2023/04/15 09:52:42;;;;;;;0.35;0.35;;;;;;;11.32;75.21;98336.91;4475557;32;34626;-84
2023/04/15 09:55:13;;;;;;;0.40;0.40;;;;;;;11.09;79.57;98341.06;4475389;32;34189;-85
2023/04/15 09:57:43;;;;;;;0.30;0.30;;;;;;;11.83;76.51;98346.63;4474972;32;36007;-81
2023/04/15 10:00:13;;;;;;;0.50;0.50;;;;;;;11.58;75.03;98344.78;4476739;32;34642;-80
2023/04/15 10:02:44;;;;;;;0.40;0.40;;;;;;;11.32;73.11;98347.34;4474343;32;33186;-82
2023/04/15 10:05:16;;;;;;;0.95;0.50;;;;;;;11.14;75.09;98343.53;4476381;32;35145;-80
2023/04/15 10:07:47;;;;;;;0.40;0.40;;;;;;;11.70;71.25;98347.91;4474892;32;35536;-85
2023/04/15 10:10:16;;;;;;;0.47;0.47;;;;;;;11.43;73.56;98339.19;4466690;32;35163;-79
2023/04/15 10:12:47;;;;;;;0.60;0.60;;;;;;;11.94;73.15;98341.09;4462844;32;33625;-82
2023/04/15 10:15:16;;;;;;;0.45;0.45;;;;;;;11.58;73.10;98347.41;4460351;32;32267;-84
2023/04/15 10:17:48;;;;;;;0.60;0.60;;;;;;;10.96;77.11;98355.34;4462880;32;35429;-81
2023/04/15 10:20:18;;;;;;;0.47;0.47;;;;;;;11.12;77.14;98351.38;4484849;32;35005;-81
2023/04/15 10:22:48;;;;;;;0.50;0.50;;;;;;;10.71;78.40;98347.31;4485178;32;34436;-84
2023/04/15 10:25:18;;;;;;;0.40;0.40;;;;;;;11.25;78.34;98351.88;4472552;32;35342;-84
2023/04/15 10:27:47;;;;;;;0.40;0.40;;;;;;;11.14;78.30;98349.59;4472068;32;36140;-83
2023/04/15 10:30:17;;;;;;;0.30;0.30;;;;;;;11.02;78.62;98357.75;4472627;32;34946;-84
2023/04/15 10:32:47;;;;;;;0.50;0.50;;;;;;;10.93;79.04;98360.63;4486556;32;34045;-85
2023/04/15 10:35:16;;;;;;;0.40;0.40;;;;;;;11.10;82.10;98360.13;4472660;32;34413;-84
2023/04/15 10:37:46;;;;;;;0.68;0.68;;;;;;;11.08;78.84;98355.00;4472347;32;35571;-83
2023/04/15 10:40:31;;;;;;;0.30;0.30;;;;;;;10.53;80.95;98362.53;4486627;32;35116;-85
2023/04/15 10:43:01;;;;;;;0.35;0.35;;;;;;;10.94;78.46;98355.37;4486662;32;34030;-79
2023/04/15 10:45:36;;;;;;;0.60;0.60;;;;;;;10.53;77.78;98359.09;4486564;32;33709;-79
2023/04/15 10:48:07;;;;;;;0.45;0.45;;;;;;;10.68;78.46;98363.06;4472820;32;35424;-80
2023/04/15 10:50:36;;;;;;;0.50;0.50;;;;;;;10.33;80.11;98360.47;4486571;32;34181;-85
2023/04/15 10:53:09;;;;;;;0.40;0.40;;;;;;;10.50;81.92;98366.97;4486436;32;34722;-80
2023/04/15 10:55:38;;;;;;;0.47;0.47;;;;;;;10.52;83.90;98370.41;4485501;32;35399;-86
2023/04/15 10:58:09;;;;;;;0.40;0.40;;;;;;;10.91;83.54;98365.88;4486261;32;35533;-85
2023/04/15 11:00:38;;;;;;;0.40;0.40;;;;;;;11.53;79.45;98375.38;4472495;32;34914;-85
2023/04/15 11:03:09;;;;;;;0.45;0.45;;;;;;;11.13;80.32;98373.91;4486478;32;33232;-85
2023/04/15 11:05:41;;;;;;;0.40;0.40;;;;;;;11.12;78.69;98374.00;4472564;32;34293;-83
2023/04/15 11:08:12;;;;;;;0.50;0.50;;;;;;;10.80;79.16;98363.56;4486330;32;35511;-85
2023/04/15 11:10:41;;;;;;;0.40;0.40;;;;;;;10.60;83.72;98371.03;4486508;32;35756;-84
2023/04/15 11:13:10;;;;;;;0.40;0.40;;;;;;;10.77;79.78;98371.47;4486303;32;34799;-79
2023/04/15 11:15:43;;;;;;;0.40;0.40;;;;;;;10.50;85.24;98372.19;4486345;32;34541;-85
2023/04/15 11:18:16;;;;;;;0.30;0.30;;;;;;;10.72;81.16;98372.47;4480488;32;179313;-79
2023/04/15 11:20:51;;;;;;;0.40;0.40;;;;;;;11.07;78.34;98368.91;4486395;32;35017;-86
2023/04/15 11:23:27;;;;;;;0.40;0.40;;;;;;;10.75;81.42;98364.59;4472845;32;33996;-80
2023/04/15 11:25:58;;;;;;;0.40;0.40;;;;;;;11.23;81.78;98368.47;4472190;32;34421;-85
2023/04/15 11:28:31;;;;;;;0.40;0.40;;;;;;;11.63;78.40;98364.66;4486517;32;35572;-86
2023/04/15 11:31:11;;;;;;;0.40;0.40;;;;;;;11.04;79.31;98363.78;4472427;32;35764;-85
2023/04/15 11:33:45;;;;;;;0.30;0.30;;;;;;;10.80;80.61;98376.59;4486257;32;33973;-85
2023/04/15 11:36:15;;;;;;;0.30;0.30;;;;;;;11.26;80.53;98376.16;4472299;32;34542;-85
2023/04/15 11:38:47;;;;;;;0.40;0.40;;;;;;;11.01;78.92;98374.25;4472077;32;36494;-85
2023/04/15 11:41:21;;;;;;;0.40;0.40;;;;;;;10.40;80.89;98374.19;4486258;32;35071;-85
2023/04/15 11:43:51;;;;;;;0.43;0.43;;;;;;;10.85;81.86;98376.44;4472248;32;34753;-84
2023/04/15 11:46:28;;;;;;;1.15;0.70;;;;;;;10.76;81.45;98374.94;4472264;32;33671;-82
2023/04/15 11:48:58;;;;;;;0.50;0.50;;;;;;;11.18;79.29;98387.69;4472056;32;36380;-85
2023/04/15 11:51:32;;;;;;;0.40;0.40;;;;;;;11.63;76.28;98367.25;4472105;32;35679;-86